This is the latest recevied weather packets stored in our database for station/object HG6IEP-10. If no packets are shown the sender has not sent any weather packets the latest 10 day(s).
| Time | Temp. | Humidity | Pressure | Rain* | Wind** | Luminosity | Snow |
|---|---|---|---|---|---|---|---|
| 1778013068 | 22.78° C | 43% | 987 hPa | - | - | - | - |
| 1778013060 | 22.78° C | 43% | 987 hPa | - | - | - | - |
| 1778009465 | 25.56° C | 41% | 987 hPa | - | - | - | - |
| 1778009456 | 25.56° C | 41% | 987 hPa | - | - | - | - |
| 1778005861 | 29.44° C | 37% | 986 hPa | - | - | - | - |
| 1778005852 | 29.44° C | 37% | 986 hPa | - | - | - | - |
| 1778002248 | 33.33° C | 32% | 986 hPa | - | - | - | - |
| 1777998652 | 35.56° C | 28% | 986 hPa | - | - | - | - |
| 1777998644 | 35.56° C | 28% | 986 hPa | - | - | - | - |
| 1777995049 | 36.67° C | 26% | 986 hPa | - | - | - | - |
| 1777995040 | 36.67° C | 26% | 986 hPa | - | - | - | - |
| 1777991444 | 36.11° C | 27% | 987 hPa | - | - | - | - |
| 1777991436 | 36.11° C | 27% | 987 hPa | - | - | - | - |
| 1777987840 | 37.78° C | 24% | 987 hPa | - | - | - | - |
| 1777987832 | 37.78° C | 24% | 987 hPa | - | - | - | - |
| 1777984236 | 36.67° C | 24% | 988 hPa | - | - | - | - |
| 1777984228 | 36.67° C | 24% | 988 hPa | - | - | - | - |
| 1777980624 | 35° C | 25% | 989 hPa | - | - | - | - |
| 1777977028 | 32.22° C | 26% | 990 hPa | - | - | - | - |
| 1777977020 | 32.22° C | 26% | 990 hPa | - | - | - | - |
| 1777973424 | 28.89° C | 27% | 990 hPa | - | - | - | - |
| 1777973416 | 28.89° C | 27% | 990 hPa | - | - | - | - |
| 1777969812 | 26.11° C | 28% | 990 hPa | - | - | - | - |
| 1777966205 | 21.67° C | 30% | 991 hPa | - | - | - | - |
| 1777962601 | 14.44° C | 36% | 991 hPa | - | - | - | - |
* Rain since midnight (hover to see other rain measurements)
** Current wind speed in m/s (hover to see current wind gust speed)